Time;durP1;ratioP1;P1;durP2;ratioP2;P2;SDS_P1;SDS_P2;PMS_P1;PMS_P2;Temp;Humidity;BMP_temperature;BMP_pressure;BME280_temperature;BME280_humidity;BME280_pressure;Samples;Min_cycle;Max_cycle;Signal;HPM_P1;HPM_P2
2022/05/30 00:00:40;;;;;;;16.35;11.10;;;;;;;10.48;90.78;91841.69;5051323;28;20036;-75
2022/05/30 00:03:06;;;;;;;17.70;10.68;;;;;;;10.49;90.54;91839.84;5049820;28;20040;-75
2022/05/30 00:05:32;;;;;;;18.83;11.65;;;;;;;10.50;92.26;91847.41;5048036;28;20475;-75
2022/05/30 00:07:59;;;;;;;17.60;11.48;;;;;;;10.47;92.13;91840.16;5051250;28;20066;-75
2022/05/30 00:10:25;;;;;;;18.63;13.10;;;;;;;10.47;93.72;91834.94;5037372;28;20048;-75
2022/05/30 00:12:51;;;;;;;24.02;11.95;;;;;;;10.49;93.16;91845.88;5032158;28;20025;-75
2022/05/30 00:15:20;;;;;;;17.98;12.77;;;;;;;10.43;95.39;91835.84;5048481;28;20049;-75
2022/05/30 00:17:46;;;;;;;17.38;12.10;;;;;;;10.44;95.43;91832.91;5047476;28;20107;-75
2022/05/30 00:20:12;;;;;;;19.83;12.43;;;;;;;10.46;94.84;91838.59;5032953;28;20514;-75
2022/05/30 00:22:38;;;;;;;22.67;12.32;;;;;;;10.44;93.74;91835.50;5032964;28;20043;-74
2022/05/30 00:25:04;;;;;;;17.77;11.65;;;;;;;10.44;94.32;91834.75;5051031;28;20033;-75
2022/05/30 00:27:30;;;;;;;19.38;13.35;;;;;;;10.42;96.59;91837.66;5033924;28;20124;-75
2022/05/30 00:29:56;;;;;;;23.30;13.18;;;;;;;10.38;96.38;91842.72;5033273;28;20036;-75
2022/05/30 00:32:23;;;;;;;25.52;13.65;;;;;;;10.37;96.48;91840.41;5049876;28;20056;-75
2022/05/30 00:34:50;;;;;;;20.88;13.35;;;;;;;10.39;96.31;91833.03;5041359;28;20531;-75
2022/05/30 00:37:16;;;;;;;25.02;13.32;;;;;;;10.39;94.24;91835.66;5030770;28;20431;-75
2022/05/30 00:39:41;;;;;;;21.33;13.15;;;;;;;10.39;93.67;91833.03;5029318;28;20041;-75
2022/05/30 00:42:14;;;;;;;23.45;13.48;;;;;;;10.39;92.25;91841.66;5029144;28;20600;-74
2022/05/30 00:44:42;;;;;;;21.40;13.63;;;;;;;10.38;91.92;91826.25;5029387;28;20029;-75
2022/05/30 00:47:08;;;;;;;20.52;13.18;;;;;;;10.37;91.49;91835.19;5042524;28;20338;-75
2022/05/30 00:49:37;;;;;;;20.00;12.93;;;;;;;10.33;91.70;91834.22;5050743;28;20044;-75
2022/05/30 00:52:05;;;;;;;21.25;13.20;;;;;;;10.36;91.48;91828.41;5050573;28;20095;-75
2022/05/30 00:55:10;;;;;;;20.10;13.80;;;;;;;10.32;91.20;91833.47;5048850;28;20041;-75
2022/05/30 00:57:39;;;;;;;22.67;14.07;;;;;;;10.32;91.06;91832.69;5026155;28;20184;-75
2022/05/30 01:00:08;;;;;;;24.73;15.10;;;;;;;10.33;93.20;91829.75;5021278;28;20037;-75
2022/05/30 01:02:37;;;;;;;24.88;16.02;;;;;;;10.38;95.41;91831.47;5013051;28;20036;-75
2022/05/30 01:07:54;;;;;;;25.02;14.38;;;;;;;10.29;93.82;91833.28;5017987;28;20041;-75
2022/05/30 01:10:22;;;;;;;22.73;15.15;;;;;;;10.25;92.83;91827.84;5039921;28;20517;-75
2022/05/30 01:12:56;;;;;;;24.88;14.68;;;;;;;10.24;92.32;91830.75;5035566;28;20484;-75
2022/05/30 01:15:26;;;;;;;21.40;15.05;;;;;;;10.21;94.00;91825.06;5029547;28;20026;-75
2022/05/30 01:18:04;;;;;;;23.77;14.00;;;;;;;10.19;93.03;91819.34;5027594;28;20187;-75
2022/05/30 01:20:39;;;;;;;23.25;15.55;;;;;;;10.24;94.31;91825.53;5028660;28;20037;-75
2022/05/30 01:23:33;;;;;;;28.38;16.13;;;;;;;10.21;95.26;91827.66;5028895;28;20125;-75
2022/05/30 01:26:27;;;;;;;24.73;16.15;;;;;;;10.19;96.80;91827.19;5029044;28;20045;-76
2022/05/30 01:29:07;;;;;;;26.83;16.15;;;;;;;10.16;97.54;91819.19;5032489;28;20498;-75
2022/05/30 01:31:33;;;;;;;26.30;15.57;;;;;;;10.14;96.72;91816.09;5048597;28;20047;-76
2022/05/30 01:33:59;;;;;;;24.42;16.65;;;;;;;10.15;95.70;91812.41;5050191;28;20325;-75
2022/05/30 01:36:29;;;;;;;27.20;16.85;;;;;;;10.16;96.72;91814.72;5045703;28;20045;-75
2022/05/30 01:38:55;;;;;;;27.02;18.08;;;;;;;10.10;98.71;91815.16;5029981;28;20033;-75
2022/05/30 01:41:35;;;;;;;30.30;18.40;;;;;;;10.10;98.50;91810.69;5014278;28;20029;-75
2022/05/30 01:44:01;;;;;;;33.22;18.25;;;;;;;10.17;98.65;91811.03;5015012;28;20055;-75
2022/05/30 01:46:26;;;;;;;28.73;17.92;;;;;;;10.15;98.11;91813.16;5028420;28;20029;-75
2022/05/30 01:48:54;;;;;;;29.48;17.23;;;;;;;10.13;97.11;91810.09;5030934;28;20042;-75
2022/05/30 01:51:22;;;;;;;29.58;19.10;;;;;;;10.15;97.85;91813.16;5043942;28;20052;-76
2022/05/30 01:53:52;;;;;;;29.58;18.58;;;;;;;10.15;97.95;91815.78;5012714;28;20585;-75
2022/05/30 01:56:40;;;;;;;29.50;18.73;;;;;;;10.09;98.70;91819.63;5029289;28;20056;-75
2022/05/30 01:59:06;;;;;;;34.00;19.58;;;;;;;10.10;98.31;91815.91;5029243;28;20037;-76
2022/05/30 02:01:39;;;;;;;30.52;19.80;;;;;;;10.07;98.15;91811.28;5030599;28;20539;-75
2022/05/30 02:04:05;;;;;;;33.00;19.52;;;;;;;10.05;96.77;91818.66;5017390;28;20026;-75
2022/05/30 02:06:32;;;;;;;32.90;20.58;;;;;;;10.04;96.75;91805.88;5015620;28;20045;-75
2022/05/30 02:08:58;;;;;;;38.25;20.20;;;;;;;10.04;95.81;91822.31;5033509;28;20080;-75
2022/05/30 02:11:27;;;;;;;38.67;21.23;;;;;;;10.02;95.06;91816.66;5039430;28;20025;-75
2022/05/30 02:14:06;;;;;;;33.42;21.33;;;;;;;10.04;95.58;91801.41;5051876;28;20037;-75
2022/05/30 02:19:20;;;;;;;33.10;20.20;;;;;;;10.03;95.53;91802.50;5033443;28;20191;-74
2022/05/30 02:21:46;;;;;;;37.40;21.90;;;;;;;10.04;96.99;91811.09;5016754;28;20041;-75
2022/05/30 02:24:12;;;;;;;34.78;20.63;;;;;;;10.08;98.56;91807.59;5030975;28;20034;-75
2022/05/30 02:26:38;;;;;;;38.28;21.48;;;;;;;10.08;98.70;91807.59;5032674;28;20040;-75
2022/05/30 02:29:06;;;;;;;32.17;19.92;;;;;;;10.06;97.71;91798.50;5049724;28;20040;-75
2022/05/30 02:31:32;;;;;;;40.00;21.08;;;;;;;10.11;98.21;91806.22;5033405;28;20666;-75
2022/05/30 02:36:44;;;;;;;35.47;20.25;;;;;;;10.00;97.29;91808.34;5031599;28;20045;-75
2022/05/30 02:39:15;;;;;;;37.20;21.00;;;;;;;9.97;97.54;91807.09;5035078;28;20488;-76
2022/05/30 02:41:59;;;;;;;33.50;20.60;;;;;;;9.96;97.09;91807.38;5033218;28;20083;-76
2022/05/30 02:44:26;;;;;;;39.53;21.60;;;;;;;9.98;98.77;91803.38;5031231;28;20077;-75
2022/05/30 02:46:59;;;;;;;40.63;22.00;;;;;;;10.01;99.65;91799.41;5031640;28;20064;-75
2022/05/30 02:49:27;;;;;;;38.08;23.17;;;;;;;9.99;98.59;91809.38;5031214;28;20155;-76
2022/05/30 02:51:54;;;;;;;37.50;22.73;;;;;;;10.00;98.69;91800.50;5031383;28;20561;-76
2022/05/30 02:54:20;;;;;;;41.35;23.55;;;;;;;9.97;98.89;91803.69;5031760;28;20563;-76
2022/05/30 02:57:24;;;;;;;31.92;18.85;;;;;;;10.04;97.09;91801.41;5030162;28;20037;-75
2022/05/30 02:59:50;;;;;;;38.22;21.02;;;;;;;9.67;99.40;91797.34;5031685;28;20038;-75
2022/05/30 03:02:15;;;;;;;41.95;23.15;;;;;;;9.53;99.70;91802.63;5014731;28;20111;-75
2022/05/30 03:04:42;;;;;;;36.97;22.55;;;;;;;9.49;100.00;91804.28;5033360;28;20048;-76
2022/05/30 03:07:08;;;;;;;41.75;23.10;;;;;;;9.51;99.88;91812.59;5032166;28;20030;-75
2022/05/30 03:09:34;;;;;;;43.40;22.58;;;;;;;9.54;99.54;91807.53;5032319;28;20068;-75
2022/05/30 03:12:17;;;;;;;37.72;21.58;;;;;;;9.60;97.34;91808.19;5031162;28;20037;-75
2022/05/30 03:14:42;;;;;;;39.63;22.10;;;;;;;9.59;97.18;91811.88;5043768;28;20048;-75
2022/05/30 03:17:09;;;;;;;35.28;19.88;;;;;;;9.68;94.19;91815.34;5050970;28;20478;-76
2022/05/30 03:19:38;;;;;;;42.47;21.73;;;;;;;9.62;95.77;91819.13;5048275;28;20033;-75
2022/05/30 03:22:04;;;;;;;37.28;20.27;;;;;;;9.55;95.80;91824.00;5014428;28;20033;-75
2022/05/30 03:24:40;;;;;;;34.80;19.35;;;;;;;9.53;96.23;91828.75;5031810;28;20033;-76
2022/05/30 03:27:06;;;;;;;38.13;20.80;;;;;;;9.58;97.31;91826.00;5046605;28;20069;-75
2022/05/30 03:29:33;;;;;;;34.13;18.95;;;;;;;9.63;96.16;91832.97;5051517;28;20131;-76
2022/05/30 03:31:59;;;;;;;36.95;21.45;;;;;;;9.67;95.37;91831.31;5029800;28;20099;-76
2022/05/30 03:34:24;;;;;;;37.75;21.40;;;;;;;9.60;95.64;91834.34;5032473;28;20029;-75
2022/05/30 03:36:50;;;;;;;37.15;21.50;;;;;;;9.58;95.37;91836.47;5031769;28;20037;-75
2022/05/30 03:39:40;;;;;;;37.33;21.45;;;;;;;9.61;95.20;91830.63;5030016;28;20041;-75
2022/05/30 03:42:24;;;;;;;38.03;21.25;;;;;;;9.65;96.49;91836.06;5032018;28;20052;-75
2022/05/30 03:45:06;;;;;;;37.53;20.88;;;;;;;9.61;94.97;91835.88;5002342;28;20084;-75
2022/05/30 03:47:37;;;;;;;36.72;21.20;;;;;;;9.58;95.36;91836.47;5050115;28;20076;-76
2022/05/30 03:50:05;;;;;;;36.55;20.98;;;;;;;9.57;95.08;91837.56;5050357;28;20087;-75
2022/05/30 03:52:33;;;;;;;34.85;20.15;;;;;;;9.64;95.04;91830.06;5025559;28;20037;-75
2022/05/30 03:55:02;;;;;;;43.17;23.17;;;;;;;9.54;96.15;91833.66;5014457;28;20045;-75
2022/05/30 03:57:28;;;;;;;37.53;21.58;;;;;;;9.53;96.45;91826.13;5029991;28;20041;-74
2022/05/30 03:59:54;;;;;;;36.92;22.55;;;;;;;9.52;96.07;91827.19;5013755;28;20402;-75
2022/05/30 04:02:19;;;;;;;40.28;22.83;;;;;;;9.68;94.36;91831.03;5030649;28;20466;-75
2022/05/30 04:04:45;;;;;;;37.15;20.05;;;;;;;9.65;95.28;91831.59;5029138;28;20518;-75
2022/05/30 04:07:11;;;;;;;32.58;18.05;;;;;;;9.68;93.88;91836.25;5032605;28;20037;-75
2022/05/30 04:09:56;;;;;;;40.00;18.50;;;;;;;9.61;92.97;91835.88;5031109;28;20574;-75
2022/05/30 04:12:45;;;;;;;33.83;18.95;;;;;;;9.51;92.58;91830.88;5029740;28;20058;-75
2022/05/30 04:15:34;;;;;;;31.33;17.35;;;;;;;9.42;94.25;91838.63;5038618;28;20143;-75
2022/05/30 04:18:00;;;;;;;34.47;18.58;;;;;;;9.51;93.55;91846.56;5032401;28;20037;-75
2022/05/30 04:20:26;;;;;;;36.53;19.55;;;;;;;9.44;93.17;91846.97;5043285;28;20029;-75
2022/05/30 04:22:52;;;;;;;34.22;20.13;;;;;;;9.42;93.67;91845.72;5029022;28;20042;-75
2022/05/30 04:25:27;;;;;;;32.33;19.15;;;;;;;9.42;94.85;91843.09;5032257;28;20037;-75
2022/05/30 04:27:53;;;;;;;30.58;18.20;;;;;;;9.45;94.65;91838.03;5030989;28;20136;-75
2022/05/30 04:30:19;;;;;;;35.67;18.55;;;;;;;9.52;94.94;91843.63;5013113;28;20033;-75
2022/05/30 04:32:48;;;;;;;32.08;17.63;;;;;;;9.52;92.63;91846.25;5029901;28;20399;-75
2022/05/30 04:35:15;;;;;;;27.33;15.73;;;;;;;9.54;92.34;91851.19;5029556;28;20517;-75
2022/05/30 04:37:41;;;;;;;33.28;18.17;;;;;;;9.58;93.48;91857.38;5014190;28;20129;-75
2022/05/30 04:40:22;;;;;;;35.42;18.83;;;;;;;9.58;93.87;91858.13;5017285;28;20032;-75
2022/05/30 04:43:06;;;;;;;32.40;17.55;;;;;;;9.58;93.71;91858.13;5036596;28;20048;-78
2022/05/30 04:46:16;;;;;;;32.67;17.73;;;;;;;9.59;93.89;91869.34;5047873;28;20040;-80
2022/05/30 04:48:45;;;;;;;33.58;19.25;;;;;;;9.56;94.47;91859.50;5044506;28;20036;-80
2022/05/30 04:51:12;;;;;;;35.42;18.38;;;;;;;9.54;92.74;91866.84;5035078;28;20038;-79
2022/05/30 04:53:40;;;;;;;30.42;18.17;;;;;;;9.47;93.88;91874.34;5035195;28;20044;-80
2022/05/30 04:56:09;;;;;;;30.05;16.35;;;;;;;9.47;93.65;91863.88;5034834;28;20072;-81
2022/05/30 04:58:51;;;;;;;28.73;17.40;;;;;;;9.48;95.62;91868.03;5028799;28;20042;-79
2022/05/30 05:01:19;;;;;;;28.95;17.50;;;;;;;9.50;95.80;91871.13;5038176;28;20110;-79
2022/05/30 05:03:44;;;;;;;28.77;17.10;;;;;;;9.52;94.76;91882.81;5034474;28;20064;-79
2022/05/30 05:06:12;;;;;;;30.65;16.77;;;;;;;9.50;93.26;91882.38;5035280;28;20060;-81
2022/05/30 05:08:48;;;;;;;34.17;16.65;;;;;;;9.53;93.21;91881.78;5035955;28;20491;-80
2022/05/30 05:11:47;;;;;;;28.38;17.20;;;;;;;9.56;93.81;91885.63;5036116;28;20061;-81
2022/05/30 05:14:31;;;;;;;26.40;14.82;;;;;;;9.60;94.06;91878.75;5049944;28;20569;-81
2022/05/30 05:17:29;;;;;;;35.45;16.35;;;;;;;9.63;93.22;91880.00;5051379;28;20073;-79
2022/05/30 05:19:54;;;;;;;26.67;15.35;;;;;;;9.64;93.07;91886.78;5047144;28;20030;-80
2022/05/30 05:22:20;;;;;;;30.08;16.95;;;;;;;9.67;94.57;91897.41;5037972;28;20030;-80
2022/05/30 05:24:46;;;;;;;23.48;12.57;;;;;;;9.83;90.65;91900.47;5026076;28;20034;-80
2022/05/30 05:27:30;;;;;;;20.45;12.25;;;;;;;9.72;89.24;91894.69;5045145;28;20534;-79
2022/05/30 05:29:56;;;;;;;27.83;13.40;;;;;;;9.73;89.86;91898.84;5032304;28;20030;-79
2022/05/30 05:32:21;;;;;;;23.48;12.90;;;;;;;9.69;89.90;91895.28;5040817;28;20306;-79
2022/05/30 05:34:50;;;;;;;19.90;12.35;;;;;;;9.80;91.11;91886.16;5027461;28;20458;-78
2022/05/30 05:37:17;;;;;;;26.75;12.85;;;;;;;9.89;92.46;91895.91;5036267;28;20033;-78
2022/05/30 05:39:49;;;;;;;29.63;14.07;;;;;;;9.98;91.86;91901.97;5021838;28;20049;-78
2022/05/30 05:42:15;;;;;;;23.52;12.77;;;;;;;9.96;92.58;91898.88;5040446;28;20041;-78
2022/05/30 05:44:41;;;;;;;20.13;12.38;;;;;;;9.99;92.83;91903.50;5058633;28;20076;-78
2022/05/30 05:47:07;;;;;;;19.58;11.82;;;;;;;9.91;90.36;91907.63;5054117;28;20546;-78
2022/05/30 05:49:33;;;;;;;20.52;11.93;;;;;;;10.05;90.28;91910.19;5046479;28;20049;-79
2022/05/30 05:51:59;;;;;;;20.95;11.75;;;;;;;10.04;89.16;91902.63;5036959;28;20035;-81
2022/05/30 05:54:26;;;;;;;19.45;11.13;;;;;;;10.09;88.87;91911.13;5042134;28;20060;-79
2022/05/30 05:56:55;;;;;;;22.85;12.05;;;;;;;10.15;90.06;91909.94;5058651;28;20032;-81
2022/05/30 05:59:26;;;;;;;25.38;12.57;;;;;;;10.24;90.06;91909.22;5041537;28;20039;-84
2022/05/30 06:01:51;;;;;;;18.40;9.82;;;;;;;10.46;83.01;91909.25;5051542;28;20037;-78
2022/05/30 06:04:18;;;;;;;24.55;10.43;;;;;;;10.33;83.27;91910.09;5022878;28;20081;-78
2022/05/30 06:07:02;;;;;;;24.98;12.63;;;;;;;10.36;90.70;91906.91;5057578;28;20044;-78
2022/05/30 06:09:51;;;;;;;19.98;11.90;;;;;;;10.40;85.69;91907.81;5043545;28;20376;-78
2022/05/30 06:12:37;;;;;;;23.05;13.38;;;;;;;10.44;90.83;91906.16;5028128;28;20037;-78
2022/05/30 06:15:04;;;;;;;19.88;12.55;;;;;;;10.48;90.39;91909.72;5043225;28;20064;-78
2022/05/30 06:17:32;;;;;;;24.52;14.02;;;;;;;10.48;92.51;91914.97;5056544;28;20041;-78
2022/05/30 06:20:00;;;;;;;24.95;12.63;;;;;;;10.52;91.52;91923.00;5056172;28;20456;-78
2022/05/30 06:22:25;;;;;;;22.65;12.10;;;;;;;10.50;90.81;91925.91;5053406;28;20041;-78
2022/05/30 06:24:51;;;;;;;21.67;10.75;;;;;;;10.46;87.38;91919.72;5020743;28;20057;-78
2022/05/30 06:27:43;;;;;;;20.80;10.60;;;;;;;10.40;85.93;91918.28;5023773;28;20034;-78
2022/05/30 06:30:29;;;;;;;21.38;11.60;;;;;;;10.42;88.21;91921.38;5023304;28;20053;-79
2022/05/30 06:32:56;;;;;;;20.27;11.48;;;;;;;10.52;87.98;91923.78;5016190;28;20063;-79
2022/05/30 06:35:33;;;;;;;23.63;11.77;;;;;;;10.52;87.76;91931.63;5046267;28;20041;-79
2022/05/30 06:37:59;;;;;;;16.48;10.32;;;;;;;10.43;82.59;91930.03;5034862;28;20419;-79
2022/05/30 06:40:25;;;;;;;21.48;10.95;;;;;;;10.48;85.03;91928.06;5018971;28;20033;-79
2022/05/30 06:42:57;;;;;;;;;;;;;;;10.45;82.05;91931.28;5019473;28;20099;-79
2022/05/30 06:45:29;;;;;;;17.45;9.95;;;;;;;10.46;83.43;91932.81;5019759;28;19928;-80
2022/05/30 06:48:15;;;;;;;19.65;10.55;;;;;;;10.57;84.32;91933.34;5037361;28;20076;-79
2022/05/30 06:50:47;;;;;;;21.13;10.65;;;;;;;10.72;86.13;91930.34;5036193;28;20045;-78
2022/05/30 06:53:12;;;;;;;22.33;10.48;;;;;;;10.84;83.17;91933.19;5026205;28;20387;-79
2022/05/30 06:55:38;;;;;;;19.00;11.48;;;;;;;10.92;87.44;91929.06;5017626;28;20447;-79
2022/05/30 06:58:13;;;;;;;21.20;11.43;;;;;;;10.97;86.88;91936.03;5046717;28;20029;-80
2022/05/30 07:00:40;;;;;;;16.92;10.80;;;;;;;11.06;86.67;91942.06;5055247;28;20052;-79
2022/05/30 07:03:24;;;;;;;20.08;10.45;;;;;;;11.12;85.90;91942.69;5074347;28;20059;-79
2022/05/30 07:06:10;;;;;;;22.73;11.75;;;;;;;11.17;85.30;91945.22;5048852;28;20043;-79
2022/05/30 07:08:55;;;;;;;18.50;10.35;;;;;;;11.19;84.54;91945.66;5065262;28;20052;-80
2022/05/30 07:11:44;;;;;;;19.15;11.43;;;;;;;11.23;85.55;91949.22;5049129;28;20041;-79
2022/05/30 07:14:13;;;;;;;22.13;10.88;;;;;;;11.16;85.15;91952.28;5037617;28;20033;-79
2022/05/30 07:16:40;;;;;;;20.98;10.68;;;;;;;11.12;86.67;91958.41;5054299;28;20044;-80
2022/05/30 07:19:09;;;;;;;19.80;10.70;;;;;;;11.08;85.96;91953.03;5041444;28;20039;-80
2022/05/30 07:21:39;;;;;;;18.10;9.95;;;;;;;11.12;82.75;91958.41;5048501;28;20043;-79
2022/05/30 07:24:23;;;;;;;18.33;9.57;;;;;;;11.06;81.21;91954.41;5052000;28;20048;-80
2022/05/30 07:27:07;;;;;;;20.35;10.93;;;;;;;10.93;82.81;91969.88;5051968;28;20060;-78
2022/05/30 07:29:50;;;;;;;24.95;11.18;;;;;;;10.95;81.98;91970.38;5041318;28;20055;-80
2022/05/30 07:32:35;;;;;;;19.52;10.77;;;;;;;11.01;82.64;91969.16;5051474;28;20434;-80
2022/05/30 07:35:21;;;;;;;19.80;10.02;;;;;;;11.13;81.44;91959.97;5045957;28;20049;-79
2022/05/30 07:38:05;;;;;;;19.55;10.57;;;;;;;11.27;83.33;91970.34;5053868;28;20178;-80
2022/05/30 07:40:45;;;;;;;18.60;11.15;;;;;;;11.37;81.52;91960.38;5038755;28;20100;-80
2022/05/30 07:43:31;;;;;;;19.08;10.48;;;;;;;11.49;80.38;91962.41;5020774;28;20049;-80
2022/05/30 07:46:21;;;;;;;21.80;10.68;;;;;;;11.69;81.56;91965.56;5039604;28;20407;-81
2022/05/30 07:48:57;;;;;;;18.48;10.45;;;;;;;11.77;81.25;91965.56;5055913;28;20034;-79
2022/05/30 07:51:55;;;;;;;18.67;10.73;;;;;;;11.94;80.24;91961.47;5027505;28;20033;-80
2022/05/30 07:54:28;;;;;;;20.83;10.77;;;;;;;12.06;80.04;91969.50;5035897;28;20424;-80
2022/05/30 07:56:59;;;;;;;17.00;10.43;;;;;;;12.05;78.12;91970.59;5035554;28;20044;-80
2022/05/30 07:59:25;;;;;;;13.98;8.75;;;;;;;12.19;78.00;91962.56;5007350;28;20037;-82
2022/05/30 08:01:51;;;;;;;18.75;10.57;;;;;;;12.38;77.50;91970.13;5049807;28;20026;-80
2022/05/30 08:04:17;;;;;;;16.02;9.77;;;;;;;12.58;76.55;91972.13;5022994;28;20065;-81
2022/05/30 08:06:45;;;;;;;15.85;9.85;;;;;;;12.73;74.56;91976.16;5036689;28;20124;-81
2022/05/30 08:09:11;;;;;;;17.98;10.45;;;;;;;12.51;76.93;91969.19;5035714;28;20084;-80
2022/05/30 08:11:48;;;;;;;17.35;9.57;;;;;;;12.61;77.99;91970.72;5035048;28;20068;-80
2022/05/30 08:14:35;;;;;;;16.25;10.10;;;;;;;12.81;76.88;91964.06;5054739;28;20087;-80
2022/05/30 08:17:01;;;;;;;16.98;9.55;;;;;;;13.07;76.43;91964.03;5037802;28;20037;-78
2022/05/30 08:19:27;;;;;;;16.45;9.75;;;;;;;13.46;75.50;91964.84;5032255;28;20502;-77
2022/05/30 08:21:52;;;;;;;15.77;9.48;;;;;;;13.81;74.11;91970.72;5016427;28;20045;-78
2022/05/30 08:24:18;;;;;;;17.90;9.75;;;;;;;14.10;73.72;91969.16;5046831;28;20310;-78
2022/05/30 08:26:52;;;;;;;18.45;9.85;;;;;;;14.43;72.64;91971.06;5048936;28;20606;-77
2022/05/30 08:29:36;;;;;;;17.10;10.10;;;;;;;14.50;69.41;91971.31;5034741;28;20104;-78
2022/05/30 08:32:05;;;;;;;17.05;9.30;;;;;;;14.29;68.41;91980.00;5046120;28;20033;-79
2022/05/30 08:34:50;;;;;;;17.80;10.10;;;;;;;14.05;69.97;91985.91;5050398;28;20049;-78
2022/05/30 08:37:16;;;;;;;16.15;9.52;;;;;;;14.14;71.13;91986.63;5044856;28;20128;-79
2022/05/30 08:42:29;;;;;;;15.48;9.68;;;;;;;14.30;70.16;91992.09;5030086;28;20038;-75
2022/05/30 08:44:58;;;;;;;14.98;9.55;;;;;;;14.33;68.82;91986.16;5031504;28;20028;-75
2022/05/30 08:47:55;;;;;;;18.00;10.23;;;;;;;14.12;69.17;91986.16;5031214;28;20052;-75
2022/05/30 08:50:25;;;;;;;15.93;9.90;;;;;;;13.94;70.02;91990.75;5030063;28;20407;-75
2022/05/30 08:53:20;;;;;;;19.30;9.80;;;;;;;13.75;69.11;91987.75;5029893;28;20041;-75
2022/05/30 08:55:57;;;;;;;18.80;9.30;;;;;;;13.69;70.74;91989.00;5029682;28;20054;-75
2022/05/30 08:59:05;;;;;;;20.98;10.15;;;;;;;13.64;72.35;91997.09;5031255;28;20048;-74
2022/05/30 09:01:40;;;;;;;20.25;9.90;;;;;;;13.70;72.87;91990.56;5029852;28;20057;-74
2022/05/30 09:04:43;;;;;;;14.63;9.25;;;;;;;13.80;71.81;91997.31;5034187;28;20111;-75
2022/05/30 09:07:16;;;;;;;14.95;8.77;;;;;;;13.83;69.50;92001.97;5029919;28;20041;-75
2022/05/30 09:09:52;;;;;;;18.52;8.48;;;;;;;13.89;69.58;91998.84;5031107;28;20048;-75
2022/05/30 09:12:38;;;;;;;17.60;9.75;;;;;;;14.11;70.41;92003.03;5033807;28;20071;-75
2022/05/30 09:15:34;;;;;;;13.45;8.75;;;;;;;14.42;70.35;92015.06;5034387;28;20426;-75
2022/05/30 09:18:09;;;;;;;16.58;8.48;;;;;;;14.82;67.73;92004.09;5033820;28;20041;-75
2022/05/30 09:20:37;;;;;;;;;;;;;;;14.99;68.15;92014.50;5034333;28;20029;-75
2022/05/30 09:23:06;;;;;;;18.30;9.05;;;;;;;15.14;66.63;92010.47;5017712;28;19940;-75
2022/05/30 09:25:57;;;;;;;17.23;8.75;;;;;;;14.91;64.58;92010.06;5033639;28;20042;-75
2022/05/30 09:28:49;;;;;;;15.00;8.65;;;;;;;14.62;65.86;92012.81;5033611;28;20115;-75
2022/05/30 09:32:21;;;;;;;14.77;8.60;;;;;;;14.57;65.94;92011.13;5034915;28;20258;-75
2022/05/30 09:34:53;;;;;;;17.58;7.60;;;;;;;14.15;66.13;92021.59;5031789;28;20033;-74
2022/05/30 09:37:41;;;;;;;17.50;9.75;;;;;;;13.55;68.54;92018.16;5034145;28;20517;-75
2022/05/30 09:40:43;;;;;;;16.90;9.55;;;;;;;13.59;69.20;92023.56;5037569;28;20049;-75
2022/05/30 09:43:23;;;;;;;;;;;;;;;13.87;70.14;92019.44;5033807;28;20041;-75
2022/05/30 09:45:49;;;;;;;16.05;9.10;;;;;;;14.03;69.19;92019.66;5033006;28;19913;-75
2022/05/30 09:48:36;;;;;;;14.43;8.50;;;;;;;14.03;68.42;92013.63;5034943;28;20064;-75
2022/05/30 09:51:09;;;;;;;14.90;9.05;;;;;;;14.07;67.94;92019.78;5032961;28;20041;-75
2022/05/30 09:53:41;;;;;;;13.35;8.15;;;;;;;14.04;68.62;92020.44;5032693;28;20043;-75
2022/05/30 09:56:09;;;;;;;11.73;7.85;;;;;;;14.14;69.65;92022.69;5034159;28;20040;-75
2022/05/30 09:59:04;;;;;;;14.10;7.97;;;;;;;14.24;69.93;92024.19;5017702;28;20589;-75
2022/05/30 10:01:52;;;;;;;13.65;7.95;;;;;;;14.29;69.88;92022.13;5033068;28;20132;-75
2022/05/30 10:04:36;;;;;;;14.88;8.27;;;;;;;14.35;68.01;92026.13;5033159;28;20100;-75
2022/05/30 10:07:05;;;;;;;17.75;7.85;;;;;;;14.34;70.43;92024.59;5032681;28;20100;-74
2022/05/30 10:09:50;;;;;;;11.90;7.63;;;;;;;14.53;66.93;92032.03;5034072;28;20431;-75
2022/05/30 10:12:49;;;;;;;10.77;7.07;;;;;;;14.34;68.76;92023.78;5032583;28;20048;-75
2022/05/30 10:15:30;;;;;;;11.40;7.32;;;;;;;14.42;70.22;92030.09;5032526;28;20038;-75
2022/05/30 10:18:13;;;;;;;12.55;7.15;;;;;;;14.49;69.76;92033.00;5032884;28;20069;-75
2022/05/30 10:21:00;;;;;;;13.15;7.30;;;;;;;14.60;69.71;92026.28;5032627;28;20037;-75
2022/05/30 10:31:02;;;;;;;18.67;8.20;;;;;;;14.79;69.29;92036.34;5034384;28;20063;-75
2022/05/30 10:33:45;;;;;;;12.05;7.68;;;;;;;14.81;67.42;92041.31;5032263;28;20384;-75
2022/05/30 10:36:38;;;;;;;12.48;7.43;;;;;;;14.82;66.64;92048.13;5032218;28;20033;-75
2022/05/30 10:39:25;;;;;;;12.07;7.53;;;;;;;14.77;68.06;92039.31;5032230;28;20033;-75
2022/05/30 10:42:10;;;;;;;13.02;8.07;;;;;;;14.74;64.70;92050.50;5033460;28;20041;-75
2022/05/30 10:44:47;;;;;;;13.40;8.18;;;;;;;14.67;66.26;92041.56;5033294;28;20372;-75
2022/05/30 10:47:40;;;;;;;13.88;7.75;;;;;;;14.73;68.06;92053.47;5031990;28;20052;-76
2022/05/30 10:50:45;;;;;;;16.30;8.95;;;;;;;14.69;66.56;92047.28;5015610;28;20453;-75
2022/05/30 10:53:33;;;;;;;13.27;7.93;;;;;;;14.51;66.50;92050.03;5032189;28;20619;-75
2022/05/30 10:56:37;;;;;;;12.77;8.07;;;;;;;14.54;68.17;92053.88;5032029;28;20084;-75
2022/05/30 10:59:32;;;;;;;15.77;8.75;;;;;;;14.60;68.42;92050.00;5031907;28;20052;-74
2022/05/30 11:02:13;;;;;;;14.20;9.25;;;;;;;14.67;67.88;92052.88;5031694;28;20029;-75
2022/05/30 11:04:54;;;;;;;15.20;9.80;;;;;;;14.76;66.67;92053.59;5040280;28;20469;-75
2022/05/30 11:07:37;;;;;;;14.82;8.70;;;;;;;14.85;65.67;92068.56;5053186;28;20510;-75
2022/05/30 11:10:36;;;;;;;15.93;8.93;;;;;;;14.83;67.11;92060.97;5051560;28;20653;-75
2022/05/30 11:13:17;;;;;;;15.68;9.32;;;;;;;14.88;62.43;92067.91;5053078;28;20033;-75
2022/05/30 11:16:01;;;;;;;16.08;8.43;;;;;;;14.82;67.00;92069.22;5051663;28;20379;-75
2022/05/30 11:19:11;;;;;;;15.30;8.68;;;;;;;14.78;68.62;92080.38;5051360;28;20040;-75
2022/05/30 11:22:16;;;;;;;14.93;9.20;;;;;;;14.94;65.86;92071.91;5052118;28;20049;-75
2022/05/30 11:24:47;;;;;;;16.00;9.13;;;;;;;15.11;67.04;92077.03;5051419;28;20108;-75
2022/05/30 11:27:27;;;;;;;15.18;8.95;;;;;;;15.31;66.05;92079.94;5051589;28;20060;-75
2022/05/30 11:30:16;;;;;;;16.90;9.20;;;;;;;15.74;61.74;92090.09;5052809;28;20534;-75
2022/05/30 11:33:01;;;;;;;13.40;8.48;;;;;;;15.71;65.26;92084.69;5052564;28;20096;-75
2022/05/30 11:35:37;;;;;;;15.68;9.05;;;;;;;16.27;62.87;92077.06;5050069;28;20040;-75
2022/05/30 11:38:35;;;;;;;13.43;8.98;;;;;;;16.32;62.16;92092.66;5051326;28;20041;-75
2022/05/30 11:41:27;;;;;;;14.50;9.13;;;;;;;16.22;61.83;92087.84;5051189;28;20418;-75
2022/05/30 11:44:12;;;;;;;16.45;10.13;;;;;;;16.10;61.62;92087.81;5048432;28;20040;-75
2022/05/30 11:46:57;;;;;;;15.57;9.38;;;;;;;15.82;63.12;92088.47;5052565;28;20041;-75
2022/05/30 11:49:35;;;;;;;11.80;8.25;;;;;;;15.88;63.91;92083.75;5052352;28;20040;-75
2022/05/30 11:52:16;;;;;;;13.68;9.50;;;;;;;15.83;61.63;92090.03;5050931;28;20041;-76
2022/05/30 11:55:10;;;;;;;14.57;8.90;;;;;;;15.88;61.97;92100.34;5051925;28;20112;-75
2022/05/30 11:57:41;;;;;;;14.43;9.02;;;;;;;15.56;62.76;92102.69;5052284;28;20037;-74
2022/05/30 12:00:31;;;;;;;14.13;9.05;;;;;;;15.52;62.67;92101.00;5051911;28;20083;-75
2022/05/30 12:03:45;;;;;;;16.60;9.18;;;;;;;15.53;64.72;92102.53;5051015;28;20052;-75
2022/05/30 12:06:21;;;;;;;16.23;9.30;;;;;;;15.70;63.67;92107.66;5032593;28;20040;-75
2022/05/30 12:09:07;;;;;;;15.13;9.73;;;;;;;15.75;61.10;92091.63;5047671;28;20045;-75
2022/05/30 12:11:54;;;;;;;11.95;7.90;;;;;;;16.01;60.84;92101.91;5051806;28;20064;-74
2022/05/30 12:14:43;;;;;;;13.23;8.90;;;;;;;16.22;59.47;92101.03;5038997;28;20564;-73
2022/05/30 12:23:47;;;;;;;14.80;9.35;;;;;;;16.47;60.21;92093.13;5051678;28;20040;-74
2022/05/30 12:23:49;;;;;;;16.67;8.82;;;;;;;16.13;61.02;92097.75;5051400;28;20028;-74